Data for 11/04/2013

Time Sea-Level Adjusted Pressure Absolute Pressure Temperature Relative Humidity Dew Point   
(mb) (inHg) (mb) (inHg) (C) (F) (%) (C) (F)
00:05 1014 29.94 843 24.89 -1.7 28.9 61 -8.3 17.1
00:10 1014 29.94 843 24.89 -1.8 28.8 59 -8.7 16.3
00:15 1014 29.94 843 24.89 -1.6 29.2 59 -8.6 16.6
00:20 1014 29.94 843 24.89 -1.5 29.3 58 -8.6 16.5
00:25 1014 29.94 843 24.89 -1.8 28.8 62 -8.1 17.3
00:30 1014 29.94 843 24.89 -2 28.4 63 -8.1 17.4
00:35 1014 29.94 843 24.89 -1.9 28.6 61 -8.4 16.8
00:40 1014 29.94 843 24.89 -1.8 28.8 64 -7.8 18
00:45 1014 29.94 843 24.89 -2.1 28.2 62 -8.4 16.8
00:50 1014 29.94 843 24.89 -1.9 28.6 61 -8.4 16.8
00:55 1014 29.94 843 24.89 -1.8 28.8 61 -8.3 17.1
01:00 1014 29.94 843 24.89 -1.7 29 61 -8.1 17.3
01:05 1014 29.94 843 24.89 -1.7 28.9 63 -8 17.7
01:10 1014 29.94 843 24.89 -1.9 28.5 62 -8.3 17
01:15 1014 29.94 843 24.89 -2.1 28.3 66 -7.6 18.3
01:20 1014 29.94 843 24.89 -2.2 28 69 -7.2 19
01:25 1014 29.94 843 24.89 -2.5 27.5 68 -7.6 18.4
01:30 1014 29.94 843 24.89 -2.2 28.1 64 -8.1 17.4
01:35 1014 29.94 843 24.89 -2 28.4 64 -7.8 17.9
01:40 1014 29.94 843 24.89 -2.1 28.2 70 -6.9 19.6
01:45 1014 29.94 843 24.89 -2.3 27.9 67 -7.6 18.4
01:50 1014 29.94 843 24.89 -2.2 28 65 -7.9 17.8
01:55 1014 29.94 843 24.89 -2.2 28.1 67 -7.5 18.5
02:00 1014 29.94 843 24.89 -2.2 28 68 -7.3 18.8
02:05 1014 29.94 843 24.89 -2.3 27.9 65 -8 17.6
02:10 1014 29.94 843 24.89 -2.3 27.9 69 -7.1 19.1
02:15 1014 29.94 843 24.89 -2.4 27.7 71 -7 19.5
02:20 1014 29.94 843 24.89 -2.7 27.2 73 -7 19.5
02:25 1014 29.94 843 24.89 -2.9 26.7 73 -7.1 19.2
02:30 1014 29.94 843 24.89 -2.9 26.8 73 -7.1 19.1
02:35 1014 29.94 843 24.89 -2.9 26.7 72 -7.4 18.7
02:40 1014 29.94 843 24.89 -2.8 26.9 71 -7.5 18.6
02:45 1014 29.94 843 24.89 -2.7 27.2 71 -7.3 18.9
02:50 1014 29.94 843 24.89 -2.6 27.2 70 -7.3 18.8
02:55 1014 29.94 843 24.89 -2.6 27.2 72 -7 19.5
03:00 1014 29.94 843 24.89 -2.7 27.1 72 -7.1 19.3
03:05 1014 29.94 843 24.89 -2.7 27.1 71 -7.3 18.8
03:10 1014 29.94 843 24.89 -2.7 27.2 70 -7.5 18.6
03:15 1014 29.94 843 24.89 -2.6 27.4 67 -7.8 17.9
03:20 1014 29.94 843 24.89 -2.3 27.8 67 -7.6 18.3
03:25 1014 29.94 843 24.89 -2.3 27.9 69 -7.2 19.1
03:30 1014 29.94 843 24.89 -2.3 27.9 70 -7 19.4
03:35 1014 29.94 844 24.92 -2.5 27.6 73 -6.7 19.9
03:40 1014 29.94 844 24.92 -2.6 27.3 74 -6.7 20
03:45 1014 29.94 844 24.92 -2.7 27.2 74 -6.8 19.8
03:50 1014 29.94 843 24.89 -2.6 27.2 75 -6.4 20.4
03:55 1014 29.94 843 24.89 -2.6 27.3 77 -6.2 20.8
04:00 1014 29.94 843 24.89 -2.6 27.2 76 -6.3 20.7
04:05 1014 29.94 844 24.92 -2.6 27.3 76 -6.3 20.7
04:10 1014 29.94 844 24.92 -2.4 27.6 74 -6.5 20.2
04:15 1014 29.94 843 24.89 -2.3 27.9 70 -7 19.3
04:20 1014 29.94 844 24.92 -2.1 28.2 73 -6.2 20.8
04:25 1014 29.94 844 24.92 -2.1 28.2 75 -6.1 21.1
04:30 1014 29.94 844 24.92 -2.3 27.8 76 -6 21.2
04:35 1014 29.94 844 24.92 -2.5 27.5 77 -6 21.1
04:40 1014 29.94 844 24.92 -2.6 27.3 79 -5.8 21.6
04:45 1014 29.94 844 24.92 -2.8 27 82 -5.5 22.1
04:50 1014 29.94 844 24.92 -2.8 27 82 -5.4 22.2
04:55 1014 29.94 844 24.92 -2.9 26.7 84 -5.3 22.4
05:00 1014 29.94 844 24.92 -3 26.7 84 -5.3 22.5
05:05 1014 29.94 844 24.92 -3 26.6 85 -5.2 22.7
05:10 1014 29.94 844 24.92 -3.1 26.4 87 -5.1 22.9
05:15 1014 29.94 844 24.92 -3.1 26.3 86 -5.2 22.6
05:20 1014 29.94 844 24.92 -3.2 26.3 87 -5 22.9
05:25 1014 29.94 844 24.92 -3.1 26.4 87 -5 23.1
05:30 1014 29.94 844 24.92 -3.1 26.4 87 -4.9 23.1
05:35 1014 29.94 844 24.92 -3.2 26.3 88 -4.9 23.1
05:40 1014 29.94 844 24.92 -3.3 26.1 88 -4.9 23.1
05:45 1015 29.97 844 24.92 -3.4 25.9 90 -4.8 23.4
05:50 1015 29.97 844 24.92 -3.4 25.9 90 -4.9 23.3
05:55 1015 29.97 844 24.92 -3.4 25.9 90 -4.8 23.4
06:00 1015 29.97 844 24.92 -3.5 25.7 91 -4.8 23.4
06:05 1015 29.97 844 24.92 -3.5 25.7 91 -4.8 23.4
06:10 1015 29.97 844 24.92 -3.6 25.6 91 -4.8 23.4
06:15 1015 29.97 844 24.92 -3.5 25.6 91 -4.8 23.3
06:20 1015 29.97 844 24.92 -3.5 25.6 91 -4.8 23.3
06:25 1015 29.97 844 24.92 -3.5 25.7 91 -4.8 23.3
06:30 1015 29.97 844 24.92 -3.4 25.8 91 -4.8 23.4
06:35 1015 29.97 844 24.92 -3.5 25.8 91 -4.7 23.5
06:40 1015 29.97 844 24.92 -3.5 25.7 91 -4.8 23.4
06:45 1015 29.97 844 24.92 -3.6 25.6 92 -4.7 23.5
06:50 1015 29.97 844 24.92 -3.6 25.5 92 -4.7 23.6
06:55 1015 29.97 844 24.92 -3.6 25.6 92 -4.7 23.5
07:00 1015 29.97 844 24.92 -3.6 25.5 92 -4.7 23.6
07:05 1015 29.97 844 24.92 -3.7 25.4 92 -4.8 23.4
07:10 1015 29.97 844 24.92 -3.7 25.4 92 -4.8 23.4
07:15 1015 29.97 844 24.92 -3.7 25.4 92 -4.9 23.3
07:20 1015 29.97 844 24.92 -3.7 25.3 91 -4.9 23.1
07:25 1015 29.97 844 24.92 -3.8 25.2 92 -5 23.1
07:30 1015 29.97 844 24.92 -3.9 25 92 -5 23
07:35 1015 29.97 844 24.92 -4 24.9 92 -5 23
07:40 1015 29.97 844 24.92 -4 24.7 93 -5.1 22.8
07:45 1015 29.97 844 24.92 -4.1 24.7 93 -5.1 22.8
07:50 1015 29.97 844 24.92 -4.2 24.5 93 -5.2 22.7
07:55 1015 29.97 844 24.92 -4.3 24.3 93 -5.3 22.5
08:00 1015 29.97 844 24.92 -4.3 24.3 92 -5.4 22.4
08:05 1015 29.97 844 24.92 -4.3 24.2 92 -5.4 22.2
08:10 1015 29.97 844 24.92 -4.3 24.2 92 -5.5 22.1
08:15 1015 29.97 844 24.92 -4.4 24 91 -5.7 21.8
08:20 1015 29.97 844 24.92 -4.6 23.7 92 -5.8 21.6
08:25 1015 29.97 844 24.92 -4.7 23.6 92 -5.8 21.5
08:30 1015 29.97 844 24.92 -4.5 23.9 91 -5.7 21.7
08:35 1015 29.97 844 24.92 -4.2 24.4 90 -5.6 21.9
08:40 1015 29.97 845 24.95 -4.1 24.6 89 -5.7 21.7
08:45 1015 29.97 845 24.95 -4.3 24.2 90 -5.8 21.6
08:50 1015 29.97 845 24.95 -4.4 24.1 90 -5.9 21.5
08:55 1015 29.97 845 24.95 -4.4 24 91 -5.7 21.7
09:00 1015 29.97 845 24.95 -4.3 24.2 90 -5.7 21.7
09:05 1015 29.97 845 24.95 -4.3 24.3 89 -5.8 21.5
09:10 1016 30 845 24.95 -4.3 24.2 90 -5.8 21.6
09:15 1016 30 845 24.95 -4.3 24.3 90 -5.7 21.8
09:20 1016 30 845 24.95 -4.2 24.5 91 -5.5 22.2
09:25 1016 30 845 24.95 -3.9 25 90 -5.3 22.5
09:30 1016 30 845 24.95 -3.7 25.4 89 -5.2 22.7
09:35 1016 30 845 24.95 -3.6 25.5 89 -5.2 22.6
09:40 1016 30 845 24.95 -3.6 25.6 89 -5.1 22.8
09:45 1016 30 845 24.95 -3.4 25.9 88 -5.1 22.8
09:50 1016 30 845 24.95 -3.4 25.9 88 -5.1 22.7
09:55 1016 30 845 24.95 -3.4 25.9 87 -5.2 22.6
10:00 1016 30 845 24.95 -3.4 25.8 88 -5.2 22.7
10:05 1016 30 845 24.95 -3.4 25.9 87 -5.2 22.6
10:10 1016 30 845 24.95 -3.4 25.9 88 -5.1 22.9
10:15 1016 30 845 24.95 -3.1 26.5 87 -5 23.1
10:20 1016 30 845 24.95 -2.9 26.7 86 -5 22.9
10:25 1016 30 845 24.95 -2.8 27 84 -5 22.9
10:30 1016 30 845 24.95 -2.6 27.3 83 -5.1 22.8
10:35 1016 30 845 24.95 -2.2 28 81 -5 22.9
10:40 1016 30 845 24.95 -1.9 28.6 79 -5 23
10:45 1016 30 845 24.95 -1.7 29 78 -5.1 22.9
10:50 1016 30 845 24.95 -1.9 28.6 78 -5.2 22.6
10:55 1016 30 845 24.95 -1.9 28.5 78 -5.3 22.4
11:00 1016 30 845 24.95 -1.6 29.1 76 -5.2 22.6
11:05 1016 30 845 24.95 -1.4 29.5 74 -5.4 22.2
11:10 1016 30 845 24.95 -1.3 29.6 73 -5.6 22
11:15 1016 30 845 24.95 -0.6 30.8 70 -5.4 22.3
11:20 1016 30 845 24.95 -0.8 30.6 72 -5.1 22.7
11:25 1016 30 845 24.95 -1.1 30.1 73 -5.3 22.5
11:30 1016 30 845 24.95 -1.5 29.2 75 -5.4 22.3
11:35 1016 30 845 24.95 -0.7 30.8 70 -5.4 22.3
11:40 1016 30 845 24.95 -0.5 31.2 71 -5 23
11:45 1016 30 845 24.95 -0.6 31 68 -5.8 21.6
11:50 1016 30 845 24.95 -0.7 30.7 73 -5 23
11:55 1016 30 845 24.95 -1.2 29.8 74 -5.3 22.4
12:00 1016 30 845 24.95 -1.2 29.9 74 -5.2 22.7
12:05 1016 30 845 24.95 -1.5 29.3 74 -5.5 22.2
12:10 1016 30 845 24.95 -1 30.2 72 -5.5 22.1
12:15 1016 30 845 24.95 -0.7 30.7 71 -5.3 22.4
12:20 1016 30 845 24.95 -0.8 30.6 69 -5.7 21.8
12:25 1016 30 845 24.95 -1 30.2 70 -5.7 21.7
12:30 1016 30 845 24.95 -0.7 30.7 73 -5 23
12:35 1016 30 845 24.95 -0.8 30.5 75 -4.7 23.5
12:40 1016 30 845 24.95 -0.8 30.6 79 -4.1 24.7
12:45 1016 30 845 24.95 -1.4 29.4 82 -4 24.7
12:50 1016 30 845 24.95 -2.1 28.3 87 -4 24.8
12:55 1016 30 845 24.95 -2.8 27 86 -4.8 23.3
13:00 1016 30 845 24.95 -2.7 27.1 86 -4.8 23.3
13:05 1015 29.97 845 24.95 -3.1 26.5 88 -4.7 23.5
13:10 1015 29.97 845 24.95 -3 26.6 84 -5.4 22.3
13:15 1015 29.97 845 24.95 -2.9 26.8 79 -6 21.2
13:20 1015 29.97 845 24.95 -2.9 26.9 79 -6 21.2
13:25 1015 29.97 845 24.95 -2.6 27.4 77 -6 21.1
13:30 1015 29.97 845 24.95 -2.2 28 77 -5.7 21.8
13:35 1015 29.97 845 24.95 -1.6 29.1 77 -5.1 22.9
13:40 1015 29.97 845 24.95 -0.5 31.2 69 -5.5 22.2
13:45 1015 29.97 844 24.92 -1 30.3 74 -5.1 22.9
13:50 1015 29.97 844 24.92 -0.7 30.7 68 -5.8 21.6
13:55 1015 29.97 844 24.92 -1 30.3 68 -6.2 20.8
14:00 1015 29.97 844 24.92 -0.9 30.3 70 -5.8 21.6
14:05 1015 29.97 844 24.92 -1.4 29.4 69 -6.4 20.4
14:10 1015 29.97 844 24.92 -1.2 29.8 66 -6.7 20
14:15 1015 29.97 844 24.92 -1.2 29.9 71 -5.8 21.6
14:20 1015 29.97 844 24.92 -1.6 29.2 80 -4.6 23.7
14:25 1015 29.97 845 24.95 -2 28.4 82 -4.7 23.6
14:30 1015 29.97 844 24.92 -2.6 27.4 85 -4.7 23.5
14:35 1015 29.97 844 24.92 -3.3 26.1 88 -5 23
14:40 1015 29.97 844 24.92 -3.2 26.3 87 -5.1 22.8
14:45 1015 29.97 844 24.92 -3.1 26.4 85 -5.2 22.6
14:50 1015 29.97 844 24.92 -2.9 26.7 83 -5.4 22.3
14:55 1015 29.97 844 24.92 -2.7 27.2 81 -5.5 22
15:00 1015 29.97 844 24.92 -2.5 27.4 81 -5.3 22.4
15:05 1015 29.97 844 24.92 -2.7 27.1 81 -5.6 21.9
15:10 1015 29.97 844 24.92 -2.6 27.3 78 -5.9 21.3
15:15 1015 29.97 844 24.92 -2 28.3 77 -5.6 21.9
15:20 1015 29.97 844 24.92 -1.2 29.8 68 -6.3 20.7
15:25 1015 29.97 845 24.95 -1.2 29.9 71 -5.8 21.5
15:30 1015 29.97 845 24.95 -0.5 31.2 64 -6.5 20.3
15:35 1015 29.97 845 24.95 -0.8 30.6 61 -7.4 18.7
15:40 1015 29.97 845 24.95 -0.6 30.9 58 -7.8 17.9
15:45 1015 29.97 844 24.92 -0.5 31.1 57 -8.1 17.4
15:50 1015 29.97 844 24.92 -0.4 31.3 56 -8.2 17.3
15:55 1015 29.97 844 24.92 0.4 32.7 51 -8.5 16.8
16:00 1015 29.97 844 24.92 0.1 32.3 51 -8.8 16.1
16:05 1015 29.97 845 24.95 0 32 53 -8.4 17
16:10 1015 29.97 845 24.95 -0.3 31.4 56 -8 17.6
16:15 1015 29.97 845 24.95 -0.3 31.5 54 -8.5 16.8
16:20 1015 29.97 845 24.95 -0.3 31.5 59 -7.4 18.7
16:25 1016 30 845 24.95 -0.4 31.2 56 -8.1 17.4
16:30 1016 30 845 24.95 -0.3 31.5 54 -8.4 16.9
16:35 1016 30 845 24.95 0.4 32.7 54 -7.9 17.8
16:40 1016 30 845 24.95 0.4 32.7 53 -8.2 17.3
16:45 1016 30 845 24.95 0.3 32.5 52 -8.4 16.9
16:50 1016 30 845 24.95 0.3 32.5 51 -8.8 16.2
16:55 1016 30 845 24.95 -0.5 31.1 56 -8.3 17
17:00 1016 30 845 24.95 -0.7 30.7 56 -8.5 16.7
17:05 1016 30 845 24.95 -0.5 31.1 56 -8.2 17.2
17:10 1016 30 845 24.95 -0.5 31 58 -7.9 17.8
17:15 1016 30 845 24.95 -1 30.1 67 -6.5 20.4
17:20 1016 30 845 24.95 -1.5 29.4 72 -5.9 21.4
17:25 1016 30 845 24.95 -1.9 28.5 76 -5.6 21.8
17:30 1016 30 845 24.95 -2.5 27.5 81 -5.3 22.5
17:35 1016 30 845 24.95 -3 26.6 84 -5.3 22.4
17:40 1016 30 845 24.95 -3.2 26.3 83 -5.7 21.7
17:45 1016 30 845 24.95 -3.1 26.5 81 -5.8 21.5
17:50 1016 30 845 24.95 -2.7 27.1 79 -5.8 21.6
17:55 1016 30 845 24.95 -2.4 27.7 76 -6.1 21.1
18:00 1016 30 846 24.98 -2.2 28.1 75 -6.1 21
18:05 1017 30.03 846 24.98 -2.1 28.1 76 -5.9 21.4
18:10 1017 30.03 846 24.98 -2.3 27.8 80 -5.3 22.5
18:15 1017 30.03 846 24.98 -2.6 27.3 85 -4.8 23.3
18:20 1017 30.03 846 24.98 -2.8 26.9 87 -4.6 23.6
18:25 1017 30.03 846 24.98 -3 26.5 88 -4.7 23.5
18:30 1017 30.03 846 24.98 -3.2 26.2 90 -4.7 23.5
18:35 1017 30.03 846 24.98 -3.5 25.7 91 -4.8 23.4
18:40 1017 30.03 846 24.98 -3.8 25.1 91 -5.1 22.9
18:45 1017 30.03 846 24.98 -4 24.7 92 -5.2 22.6
18:50 1017 30.03 846 24.98 -4.1 24.6 92 -5.3 22.5
18:55 1017 30.03 846 24.98 -4.2 24.4 91 -5.4 22.2
19:00 1017 30.03 846 24.98 -4.3 24.3 92 -5.4 22.3
19:05 1017 30.03 846 24.98 -4.3 24.3 92 -5.4 22.2
19:10 1017 30.03 846 24.98 -4.3 24.3 92 -5.4 22.3
19:15 1017 30.03 846 24.98 -4.3 24.2 91 -5.5 22
19:20 1017 30.03 846 24.98 -4.4 24.1 91 -5.6 21.9
19:25 1017 30.03 846 24.98 -4.3 24.2 89 -5.8 21.5
19:30 1017 30.03 846 24.98 -4.3 24.2 90 -5.8 21.5
19:35 1017 30.03 846 24.98 -4.4 24.1 90 -5.8 21.6
19:40 1017 30.03 846 24.98 -4.5 24 90 -5.8 21.5
19:45 1017 30.03 846 24.98 -4.5 24 90 -5.8 21.5
19:50 1017 30.03 846 24.98 -4.6 23.7 90 -6 21.3
19:55 1017 30.03 846 24.98 -4.6 23.6 89 -6.2 20.9
20:00 1017 30.03 846 24.98 -4.6 23.7 88 -6.3 20.6
20:05 1017 30.03 847 25.01 -4.6 23.6 87 -6.5 20.4
20:10 1017 30.03 847 25.01 -4.6 23.7 87 -6.6 20.2
20:15 1017 30.03 847 25.01 -4.5 23.8 87 -6.4 20.4
20:20 1017 30.03 847 25.01 -4.5 23.9 86 -6.4 20.4
20:25 1017 30.03 847 25.01 -4.8 23.4 87 -6.6 20
20:30 1018 30.06 847 25.01 -5.1 22.9 88 -6.8 19.7
20:35 1017 30.03 847 25.01 -5.4 22.4 87 -7.2 19
20:40 1018 30.06 847 25.01 -5.5 22.2 86 -7.5 18.5
20:45 1018 30.06 847 25.01 -5.6 21.9 87 -7.5 18.6
20:50 1018 30.06 847 25.01 -5.8 21.6 86 -7.7 18.2
20:55 1018 30.06 847 25.01 -5.7 21.7 84 -7.9 17.7
21:00 1018 30.06 847 25.01 -5.3 22.5 82 -7.9 17.7
21:05 1018 30.06 847 25.01 -5.2 22.7 82 -7.8 18
21:10 1018 30.06 847 25.01 -5.3 22.4 83 -7.7 18.1
21:15 1018 30.06 847 25.01 -5.5 22.1 83 -8 17.6
21:20 1018 30.06 847 25.01 -5.7 21.7 84 -8.1 17.5
21:25 1018 30.06 847 25.01 -5.9 21.3 81 -8.7 16.3
21:30 1018 30.06 847 25.01 -6.1 21.1 82 -8.7 16.3
21:35 1018 30.06 847 25.01 -6.2 20.8 82 -8.7 16.3
21:40 1018 30.06 847 25.01 -6.1 21 83 -8.6 16.5
21:45 1018 30.06 847 25.01 -6 21.3 82 -8.5 16.7
21:50 1018 30.06 847 25.01 -5.8 21.5 81 -8.6 16.6
21:55 1018 30.06 847 25.01 -5.8 21.5 81 -8.6 16.6
22:00 1018 30.06 847 25.01 -6.1 21.1 81 -8.8 16.2
22:05 1018 30.06 847 25.01 -6.3 20.6 81 -9.1 15.7
22:10 1018 30.06 847 25.01 -6.5 20.3 81 -9.3 15.3
22:15 1018 30.06 847 25.01 -6.6 20.1 81 -9.4 15.1
22:20 1018 30.06 847 25.01 -6.5 20.2 81 -9.3 15.2
22:25 1018 30.06 847 25.01 -6.3 20.7 79 -9.3 15.3
22:30 1018 30.06 847 25.01 -6.2 20.9 79 -9.3 15.3
22:35 1018 30.06 847 25.01 -6 21.2 78 -9.2 15.4
22:40 1018 30.06 847 25.01 -6 21.3 78 -9.2 15.5
22:45 1018 30.06 847 25.01 -6.1 21 79 -9.3 15.3
22:50 1018 30.06 847 25.01 -6.1 21 77 -9.5 14.9
22:55 1018 30.06 847 25.01 -6.1 21 78 -9.4 15
23:00 1018 30.06 848 25.04 -6.3 20.6 78 -9.5 14.8
23:05 1018 30.06 847 25.01 -6.4 20.5 79 -9.5 14.8
23:10 1018 30.06 847 25.01 -6.5 20.3 78 -9.7 14.6
23:15 1018 30.06 848 25.04 -6.6 20.2 80 -9.4 15
23:20 1018 30.06 848 25.04 -6.9 19.6 80 -9.7 14.5
23:25 1018 30.06 848 25.04 -6.7 19.9 79 -9.8 14.4
23:30 1018 30.06 848 25.04 -6.5 20.3 78 -9.8 14.4
23:35 1018 30.06 848 25.04 -6.4 20.6 77 -9.7 14.6
23:40 1018 30.06 848 25.04 -6.3 20.7 77 -9.6 14.7
23:45 1018 30.06 848 25.04 -6.3 20.6 77 -9.7 14.5
23:50 1018 30.06 848 25.04 -6.3 20.6 77 -9.7 14.5
23:55 1019 30.09 848 25.04 -6.3 20.6 77 -9.7 14.6
24:00 1019 30.09 848 25.04 -6.3 20.7 77 -9.6 14.6